AirNav   Pilot Hours Calculator
 
 506 users online  

4WN3 Lakewood Airpark
Lakewood, Wisconsin, USA

GOING TO LAKEWOOD?


FAA INFORMATION EFFECTIVE 25 MARCH 2021

Location

FAA Identifier: 4WN3
Lat/Long: 45-19-55.3867N 088-32-09.5858W
45-19.923112N 088-32.159763W
45.3320519,-88.5359961
(estimated)
Elevation: 1300 ft. / 396 m (estimated)
From city: 2 miles NNW of LAKEWOOD, WI
Time zone: UTC -5 (UTC -6 during Standard Time)
Zip code: 54138

Airport Operations

Airport use: Private use. Permission required prior to landing
Activation date: 09/2004
Control tower: no
ARTCC: MINNEAPOLIS CENTER
FSS: GREEN BAY FLIGHT SERVICE STATION
Attendance: UNATNDD
Wind indicator: yes
Segmented circle: no

Nearby radio navigation aids

VOR radial/distance  VOR name  Freq  Var
IMTr214/34.1IRON MOUNTAIN VOR/DME111.2002W
MNMr284/38.6MENOMINEE VOR/DME109.6000E

Airport Services

Runway Information

Runway 9/27

Dimensions: 2500 x 150 ft. / 762 x 46 m
Surface: turf
RUNWAY 9  RUNWAY 27
Traffic pattern: leftleft

Airport Ownership and Management from official FAA records

Ownership: Privately-owned
Owner: LAKEWOOD AIRPARK LLC
15605 MAIDEN LAKE RD
MOUNTAIN, WI 54149
Manager: PHIL HARTMAN
15605 MAIDEN LAKE RD
MOUNTAIN, WI 54149
Phone 715-850-1206

Additional Remarks

FOR CD CTC MINNEAPOLIS ARTCC AT 651-463-5588.

Instrument Procedures

There are no published instrument procedures at 4WN3.

Some nearby airports with instrument procedures:

Y55 - Crandon/Steve Conway Municipal Airport (20 nm NW)
KAIG - Langlade County Airport (27 nm SW)
KEZS - Shawano Municipal Airport (33 nm S)
KIMT - Ford Airport (34 nm NE)
KOCQ - Oconto-J Douglas Bake Municipal Airport (38 nm SE)
 
Loc | Ops | Rwys | IFR | FBO | Links
Com | Nav | Svcs | Stats | Notes
Area around 4WN3 (Lakewood Airpark)
 
Road maps at: MapQuest Bing Google
 
Aerial photo
WARNING: Photo may not be current or correct
Aerial photo of 4WN3 (Lakewood Airpark)
Photo by William Knauth
looking west.

Do you have a better or more recent aerial photo of Lakewood Airpark that you would like to share? If so, please send us your photo.

 
Sectional chart

 
Airport distance calculator
Flying to Lakewood Airpark? Find the distance to fly.

From to 4WN3

Sunrise and sunset
Times for 19-Apr-2021
 Local
(UTC-5)
 Zulu
(UTC)
Morning civil twilight05:3210:32
Sunrise06:0311:03
Sunset19:4400:44
Evening civil twilight20:1501:15

Current date and time
Zulu (UTC)  19-Apr-2021 10:28:03
Local (UTC-5)  19-Apr-2021 05:28:03
 
METAR
KAIG 
32nm SW 
191015Z AUTO 30011G18KT 10SM SCT016 SCT025 00/M02 A2971 RMK AO2 T10021019
KEZS 
33nm S 
715-526-2967
191015Z AUTO 30006G15KT 10SM BKN023 04/00 A2972 RMK AO2 T00430000
KIMT 
34nm NE 
191016Z AUTO 29011G20KT 10SM SCT021 BKN029 02/M05 A2963 RMK AO2 T00171050
KOCQ 
38nm SE 
191015Z AUTO 31009KT 10SM SCT025 SCT032 05/01 A2968 RMK AO1 T00510007
KMNM 
41nm E 
190956Z AUTO 32009G14KT 10SM FEW050 05/01 A2967 RMK AO2 SLP049 T00500006 $
KRHI 
44nm NW 
191022Z AUTO 31008G19KT 4SM -SN BR SCT012 BKN024 OVC032 M01/M03 A2972 RMK AO2 SNE01B21 P0000 T10061028
KCLI 
45nm S 
191015Z AUTO 30012G18KT 10SM OVC022 04/00 A2973 RMK AO2 T00391004
KEGV 
47nm NW 
191015Z AUTO 29009G14KT 2 1/2SM -SN SCT008 OVC014 00/M01 A2969 RMK AO2 T10051010
TAF
KRHI 
44nm NW 
190520Z 1906/2006 28011G19KT P6SM SCT014 BKN020 TEMPO 1906/1910 SCT008 BKN014 FM191000 32011G20KT P6SM OVC015 FM191600 32013G20KT P6SM -SHSN OVC024 FM191800 32011G20KT P6SM -SHSN OVC040 FM192300 33009G16KT P6SM BKN045 FM200100 33006KT P6SM SCT050
NOTAMs
Click for the latest NOTAMs
NOTAMs are issued by the DoD/FAA and will open in a separate window not controlled by AirNav.

 

 
 

Would you like to see your business listed on this page?

 If your business provides an interesting product or service to pilots, flight crews, aircraft, or users of the Lakewood Airpark, you should consider listing it here.  To start the listing process, click on the button below
 
Add a business
 

Other Pages about Lakewood Airpark

Update a link
 
Copyright © AirNav, LLC. All rights reserved. Privacy Policy  Contact